Главная страница
METAR-TAF:

METAR-TAF

Аэропорты :

Грозный, Россия

широта: 43-23-18N, долгота: 045-41-59E, высота над уровнем моря: 167 м

Текущие метеонаблюдения

Эта сводка был подготовлена 25 минут назад, в 02:30 UTC
Ветер 2 Узел от восточно-северо-восточный
Температура 13°C
Влажность 94%
Давление 1016 hPa
Видимость 10 км и более
Нет облачности ниже 1500 м, и нет кучево-дождевой облачности

METAR: URMG 210230Z 07001MPS CAVOK 13/12 Q1016 R26/000070 NOSIG RMK QFE747/0996

Время: 05:55 (02:55 UTC)

Прогноз

Эта сводка был подготовлена 55 минут назад, в 02:00 UTC
Прогноз действительный с 21-го 03 UTC до 21-го 12 UTC
Ветер 6 Узел от восточный с порывами до 16 Узел
Видимость 10 км и более
Нет облачности ниже 1500 м, и нет кучево-дождевой облачности

TAF: URMG 210200Z 2103/2112 10003G08MPS CAVOK

Метеонаблюдения и прогнозы для более 4000 аэропортов (сводки METAR и TAF).

Имеющиеся станции представлены на карте желтыми и красными точками.

Чтобы увидеть название станции, наведите на нее мышь.

Затем щелкните, чтобы увидеть метеонаблюдения и метеопрогнозы.

Управление картой: чтобы увеличить масштаб, щелкните зеленые кнопки с черным крестиком; чтобы уменьшить масштаб, щелкните зеленую кнопку с тире; для просмотра соседних карт щелкайте зеленые стрелки.


METAR-TAF: